Terminal Aerodrome Forecast
Issued by NWS

Home | Current Version | Previous Version | Text Only | Print | Product List | Glossary On
Versions: 1 2 3 4 5 6 7 8 9 10 11 12 13 14 15 16 17 18 19 20 21 22 23 24 25 26 27 28 29 30 31 32 33 34
000
FTUS42 KMHX 101721
TAFPGV
TAF
KPGV 101721Z 1018/1118 23019G26KT P6SM SCT150
     FM110200 29005KT 6SM -RA BKN025
     FM110800 35008G13KT 6SM -RA SCT007 OVC015
     FM111500 01009G14KT P6SM BKN040
     AMD LTD TO CLD VIS AND WIND=

USA.gov is the U.S. government's official web portal to all federal, state and local government web resources and services.